Time;durP1;ratioP1;P1;durP2;ratioP2;P2;SDS_P1;SDS_P2;PMS_P1;PMS_P2;Temp;Humidity;BMP_temperature;BMP_pressure;BME280_temperature;BME280_humidity;BME280_pressure;Samples;Min_cycle;Max_cycle;Signal;HPM_P1;HPM_P2
2022/03/04 00:01:47;;;;;;;;;4.50;4.50;14.60;99.90;;;;;;5049649;28;11473;-56
2022/03/04 00:04:17;;;;;;;;;4.25;4.25;14.60;99.90;;;;;;5051905;28;11422;-58
2022/03/04 00:06:50;;;;;;;;;3.25;3.25;14.60;99.90;;;;;;5050715;28;11516;-57
2022/03/04 00:09:22;;;;;;;;;4.00;4.00;14.60;99.90;;;;;;5047826;28;11212;-55
2022/03/04 00:11:54;;;;;;;;;5.00;4.00;14.60;99.90;;;;;;5047347;28;12013;-55
2022/03/04 00:14:25;;;;;;;;;5.00;5.00;14.60;99.90;;;;;;5057789;28;11109;-57
2022/03/04 00:16:55;;;;;;;;;3.00;3.00;14.60;99.90;;;;;;5050288;28;11458;-58
2022/03/04 00:19:26;;;;;;;;;7.50;6.50;14.60;99.90;;;;;;5052370;28;11432;-57
2022/03/04 00:21:56;;;;;;;;;5.00;5.00;14.60;99.90;;;;;;5043719;28;11192;-58
2022/03/04 00:24:27;;;;;;;;;2.50;2.25;14.60;99.90;;;;;;5048457;28;11501;-55
2022/03/04 00:26:57;;;;;;;;;4.75;4.75;14.60;99.90;;;;;;5047003;28;11514;-57
2022/03/04 00:29:28;;;;;;;;;3.00;3.00;14.60;99.90;;;;;;5056060;28;11209;-55
2022/03/04 00:31:59;;;;;;;;;4.00;4.00;14.60;99.90;;;;;;5050464;28;11422;-56
2022/03/04 00:34:30;;;;;;;;;2.25;2.25;14.60;99.90;;;;;;5051007;28;11445;-54
2022/03/04 00:37:00;;;;;;;;;2.00;2.00;14.60;99.90;;;;;;5053155;28;11466;-52
2022/03/04 00:39:30;;;;;;;;;3.75;3.75;14.50;99.90;;;;;;5075553;28;11731;-54
2022/03/04 00:42:00;;;;;;;;;3.50;3.50;14.60;99.90;;;;;;5051445;28;11453;-54
2022/03/04 00:44:32;;;;;;;;;2.50;2.50;14.50;99.90;;;;;;5061036;28;11234;-54
2022/03/04 00:47:04;;;;;;;;;4.75;3.00;14.50;99.90;;;;;;5053550;28;11980;-57
2022/03/04 00:49:35;;;;;;;;;3.50;3.50;14.50;99.90;;;;;;5050722;28;11427;-57
2022/03/04 00:52:07;;;;;;;;;0.50;0.50;14.60;99.90;;;;;;5050179;28;11444;-54
2022/03/04 00:54:38;;;;;;;;;3.00;3.00;14.50;99.90;;;;;;5051717;28;11947;-57
2022/03/04 00:57:08;;;;;;;;;3.00;3.00;14.50;99.90;;;;;;5049465;28;11095;-58
2022/03/04 00:59:39;;;;;;;;;3.50;3.50;14.60;99.90;;;;;;5053551;28;11235;-56
2022/03/04 01:02:09;;;;;;;;;4.00;4.00;14.60;99.90;;;;;;5059371;28;11204;-55
2022/03/04 01:04:43;;;;;;;;;2.00;2.00;14.50;99.90;;;;;;5053539;28;11465;-55
2022/03/04 01:07:13;;;;;;;;;4.00;4.00;14.50;99.90;;;;;;5056986;28;11049;-56
2022/03/04 01:09:48;;;;;;;;;3.50;3.50;14.50;99.90;;;;;;5057045;28;11454;-57
2022/03/04 01:12:20;;;;;;;;;2.00;2.00;14.60;99.90;;;;;;5059091;28;10960;-55
2022/03/04 01:14:54;;;;;;;;;5.25;4.00;14.50;99.90;;;;;;5048152;28;11493;-56
2022/03/04 01:17:25;;;;;;;;;1.00;1.00;14.50;99.90;;;;;;5055360;28;11474;-57
2022/03/04 01:19:57;;;;;;;;;3.00;3.00;14.60;99.90;;;;;;5057244;28;11256;-57
2022/03/04 01:22:29;;;;;;;;;3.00;3.00;14.50;99.90;;;;;;5055485;28;11234;-55
2022/03/04 01:25:00;;;;;;;;;4.25;4.25;14.50;99.90;;;;;;5053921;28;11545;-57
2022/03/04 01:27:31;;;;;;;;;4.00;4.00;14.50;99.90;;;;;;5051522;28;11453;-57
2022/03/04 01:30:04;;;;;;;;;5.00;5.00;14.50;99.90;;;;;;5049854;28;11203;-56
2022/03/04 01:32:34;;;;;;;;;4.00;4.00;14.50;99.90;;;;;;5051387;28;11455;-58
2022/03/04 01:35:06;;;;;;;;;4.50;3.00;14.50;99.90;;;;;;5057981;28;11464;-54
2022/03/04 01:37:37;;;;;;;;;2.75;2.75;14.50;99.90;;;;;;5055385;28;11130;-57
2022/03/04 01:40:09;;;;;;;;;3.50;3.00;14.50;99.90;;;;;;5055073;28;11218;-57
2022/03/04 01:42:39;;;;;;;;;4.00;2.00;14.50;99.90;;;;;;5060224;28;12236;-57
2022/03/04 01:45:11;;;;;;;;;4.00;4.00;14.50;99.90;;;;;;5057755;28;11442;-56
2022/03/04 01:47:42;;;;;;;;;3.50;3.50;14.50;99.90;;;;;;5055876;28;11437;-57
2022/03/04 01:50:13;;;;;;;;;4.25;4.25;14.50;99.90;;;;;;5051453;28;11452;-55
2022/03/04 01:52:45;;;;;;;;;2.50;2.50;14.50;99.90;;;;;;5058784;28;11465;-54
2022/03/04 01:55:14;;;;;;;;;4.50;4.50;14.50;99.90;;;;;;5058749;28;11477;-56
2022/03/04 01:57:46;;;;;;;;;4.00;4.00;14.50;99.90;;;;;;5054305;28;11086;-53
2022/03/04 02:00:17;;;;;;;;;2.00;2.00;14.50;99.90;;;;;;5059599;28;11447;-59
2022/03/04 02:02:47;;;;;;;;;4.00;4.00;14.50;99.90;;;;;;5051327;28;12053;-56
2022/03/04 02:05:20;;;;;;;;;4.25;4.25;14.50;99.90;;;;;;5042055;28;11494;-56
2022/03/04 02:07:50;;;;;;;;;5.00;5.00;14.50;99.90;;;;;;5056280;28;11495;-57
2022/03/04 02:10:21;;;;;;;;;6.00;6.00;14.50;99.90;;;;;;5053928;28;11458;-57
2022/03/04 02:12:53;;;;;;;;;4.50;4.50;14.50;99.90;;;;;;5052673;28;11444;-54
2022/03/04 02:15:24;;;;;;;;;7.75;6.50;14.50;99.90;;;;;;5052537;28;11482;-58
2022/03/04 02:17:55;;;;;;;;;6.00;6.00;14.50;99.90;;;;;;5056898;28;11423;-56
2022/03/04 02:20:30;;;;;;;;;6.75;6.75;14.40;99.90;;;;;;5048274;28;12207;-60
2022/03/04 02:23:02;;;;;;;;;7.00;6.25;14.40;99.90;;;;;;5056727;28;11431;-57
2022/03/04 02:25:33;;;;;;;;;6.00;6.00;14.40;99.90;;;;;;5056231;28;11459;-57
2022/03/04 02:28:06;;;;;;;;;5.00;5.00;14.40;99.90;;;;;;5058104;28;11448;-47
2022/03/04 02:30:39;;;;;;;;;4.75;4.75;14.40;99.90;;;;;;5046127;28;11442;-58
2022/03/04 02:33:10;;;;;;;;;6.00;6.00;14.40;99.90;;;;;;5054982;28;11504;-58
2022/03/04 02:35:42;;;;;;;;;5.00;5.00;14.40;99.90;;;;;;5055607;28;11456;-58
2022/03/04 02:38:13;;;;;;;;;4.75;4.75;14.40;99.90;;;;;;5052839;28;11541;-49
2022/03/04 02:40:47;;;;;;;;;7.00;7.00;14.40;99.90;;;;;;5055670;28;11519;-54
2022/03/04 02:43:20;;;;;;;;;5.75;5.75;14.40;99.90;;;;;;5054922;28;11475;-51
2022/03/04 02:45:52;;;;;;;;;4.75;4.75;14.40;99.90;;;;;;5051744;28;11448;-52
2022/03/04 02:48:22;;;;;;;;;5.50;5.50;14.40;99.90;;;;;;5051228;28;11498;-58
2022/03/04 02:50:53;;;;;;;;;5.50;5.50;14.40;99.90;;;;;;5052222;28;11442;-59
2022/03/04 02:53:23;;;;;;;;;8.50;8.50;14.30;99.90;;;;;;5055439;28;11420;-51
2022/03/04 02:55:57;;;;;;;;;6.00;6.00;14.40;99.90;;;;;;5048655;28;11514;-58
2022/03/04 02:58:29;;;;;;;;;5.00;5.00;14.30;99.90;;;;;;5049794;28;13062;-50
2022/03/04 03:01:00;;;;;;;;;6.00;6.00;14.30;99.90;;;;;;5050318;28;11440;-58
2022/03/04 03:03:32;;;;;;;;;5.25;5.25;14.30;99.90;;;;;;5058169;28;11462;-57
2022/03/04 03:06:06;;;;;;;;;6.50;6.50;14.30;99.90;;;;;;5049629;28;11431;-58
2022/03/04 03:08:38;;;;;;;;;7.25;7.00;14.30;99.90;;;;;;5056812;28;11478;-59
2022/03/04 03:11:12;;;;;;;;;8.25;7.00;14.30;99.90;;;;;;5057741;28;11439;-56
2022/03/04 03:13:44;;;;;;;;;6.25;6.25;14.30;99.90;;;;;;5051522;28;11456;-52
2022/03/04 03:16:18;;;;;;;;;9.00;9.00;14.30;99.90;;;;;;5054701;28;11438;-53
2022/03/04 03:18:49;;;;;;;;;7.50;7.50;14.30;99.90;;;;;;5053521;28;11468;-58
2022/03/04 03:21:19;;;;;;;;;6.75;6.75;14.30;99.90;;;;;;5059142;28;11507;-57
2022/03/04 03:23:51;;;;;;;;;7.50;7.50;14.30;99.90;;;;;;5053531;28;11472;-58
2022/03/04 03:26:23;;;;;;;;;6.75;6.50;14.30;99.90;;;;;;5056478;28;12264;-58
2022/03/04 03:28:53;;;;;;;;;7.50;7.00;14.30;99.90;;;;;;5061831;28;11473;-50
2022/03/04 03:31:24;;;;;;;;;7.00;7.00;14.30;99.90;;;;;;5050715;28;11455;-53
2022/03/04 03:33:54;;;;;;;;;9.50;9.50;14.30;99.90;;;;;;5051863;28;11442;-58
2022/03/04 03:36:25;;;;;;;;;6.25;6.25;14.30;99.90;;;;;;5054524;28;12229;-58
2022/03/04 03:38:55;;;;;;;;;7.00;7.00;14.20;99.90;;;;;;5052348;28;11492;-52
2022/03/04 03:41:26;;;;;;;;;6.25;6.25;14.30;99.90;;;;;;5052923;28;11494;-59
2022/03/04 03:43:56;;;;;;;;;7.25;7.25;14.20;99.90;;;;;;5046487;28;11486;-59
2022/03/04 03:46:27;;;;;;;;;0.00;0.00;14.20;99.90;;;;;;5053992;28;11490;-59
2022/03/04 03:48:59;;;;;;;;;9.75;9.75;14.20;99.90;;;;;;5051254;28;11447;-52
2022/03/04 03:51:29;;;;;;;;;7.00;7.00;14.20;99.90;;;;;;5056132;28;11471;-48
2022/03/04 03:54:00;;;;;;;;;9.50;9.50;14.20;99.90;;;;;;5052850;28;11451;-58
2022/03/04 03:56:30;;;;;;;;;10.00;10.00;14.20;99.90;;;;;;5051266;28;11472;-50
2022/03/04 03:59:02;;;;;;;;;7.00;7.00;14.20;99.90;;;;;;5053307;28;11501;-58
2022/03/04 04:01:33;;;;;;;;;7.75;7.75;14.20;99.90;;;;;;5048448;28;11515;-58
2022/03/04 04:04:14;;;;;;;;;8.75;7.25;14.20;99.90;;;;;;5044859;28;11486;-58
2022/03/04 04:06:46;;;;;;;;;9.25;9.25;14.20;99.90;;;;;;5049195;28;11509;-59
2022/03/04 04:09:16;;;;;;;;;7.25;7.25;14.20;99.90;;;;;;5061177;28;11448;-59
2022/03/04 04:11:47;;;;;;;;;7.75;7.75;14.20;99.90;;;;;;5049261;28;11472;-58
2022/03/04 04:14:19;;;;;;;;;10.00;8.50;14.20;99.90;;;;;;5050245;28;11455;-48
2022/03/04 04:16:49;;;;;;;;;8.75;8.75;14.20;99.90;;;;;;5048741;28;11519;-58
2022/03/04 04:19:20;;;;;;;;;6.00;6.00;14.20;99.90;;;;;;5049746;28;12191;-50
2022/03/04 04:21:52;;;;;;;;;7.75;7.75;14.20;99.90;;;;;;5046142;28;12231;-52
2022/03/04 04:24:22;;;;;;;;;7.00;7.00;14.20;99.90;;;;;;5047961;28;11492;-58
2022/03/04 04:26:54;;;;;;;;;7.25;7.25;14.20;99.90;;;;;;5047380;28;11456;-49
2022/03/04 04:29:26;;;;;;;;;8.00;8.00;14.20;99.90;;;;;;5052297;28;11502;-54
2022/03/04 04:31:57;;;;;;;;;10.25;10.25;14.20;99.90;;;;;;5053241;28;11454;-52
2022/03/04 04:34:28;;;;;;;;;10.00;10.00;14.20;99.90;;;;;;5051493;28;11486;-50
2022/03/04 04:36:58;;;;;;;;;9.50;9.50;14.20;99.90;;;;;;5052282;28;11445;-53
2022/03/04 04:39:31;;;;;;;;;8.00;8.00;14.20;99.90;;;;;;5046378;28;11581;-57
2022/03/04 04:42:02;;;;;;;;;7.75;7.75;14.20;99.90;;;;;;5054554;28;11436;-58
2022/03/04 04:44:33;;;;;;;;;7.25;7.25;14.10;99.90;;;;;;5046785;28;11533;-58
2022/03/04 04:47:06;;;;;;;;;6.00;6.00;14.10;99.90;;;;;;5058290;28;12191;-58
2022/03/04 04:49:38;;;;;;;;;8.00;8.00;14.10;99.90;;;;;;5049205;28;12375;-58
2022/03/04 04:52:10;;;;;;;;;6.50;6.50;14.10;99.90;;;;;;5050711;28;11532;-58
2022/03/04 04:54:41;;;;;;;;;6.75;6.75;14.10;99.90;;;;;;5051603;28;11466;-58
2022/03/04 04:57:11;;;;;;;;;6.25;6.25;14.20;99.90;;;;;;5051660;28;12225;-58
2022/03/04 04:59:43;;;;;;;;;7.75;7.75;14.10;99.90;;;;;;5045498;28;12035;-58
2022/03/04 05:02:16;;;;;;;;;6.00;6.00;14.10;99.90;;;;;;5055271;28;11463;-58
2022/03/04 05:04:48;;;;;;;;;4.25;4.25;14.10;99.90;;;;;;5049364;28;11449;-53
2022/03/04 05:07:18;;;;;;;;;4.25;4.25;14.10;99.90;;;;;;5047856;28;11417;-54
2022/03/04 05:09:49;;;;;;;;;6.25;6.00;14.10;99.90;;;;;;5060931;28;11462;-50
2022/03/04 05:12:21;;;;;;;;;3.75;3.75;14.10;99.90;;;;;;5051598;28;11451;-58
2022/03/04 05:14:52;;;;;;;;;3.00;3.00;14.10;99.90;;;;;;5061608;28;11475;-57
2022/03/04 05:17:24;;;;;;;;;2.50;2.50;14.10;99.90;;;;;;5055276;28;11466;-57
2022/03/04 05:19:54;;;;;;;;;4.50;4.00;14.10;99.90;;;;;;5056441;28;11538;-57
2022/03/04 05:22:25;;;;;;;;;1.00;1.00;14.10;99.90;;;;;;5056162;28;11446;-52
2022/03/04 05:24:55;;;;;;;;;3.50;3.50;14.10;99.90;;;;;;5060521;28;12276;-53
2022/03/04 05:27:25;;;;;;;;;5.50;4.00;14.10;99.90;;;;;;5053636;28;11431;-52
2022/03/04 05:29:56;;;;;;;;;3.25;3.25;14.10;99.90;;;;;;5058711;28;11475;-49
2022/03/04 05:32:27;;;;;;;;;3.00;3.00;14.10;99.90;;;;;;5050880;28;11491;-54
2022/03/04 05:34:59;;;;;;;;;3.00;3.00;14.10;99.90;;;;;;5052820;28;11468;-52
2022/03/04 05:37:30;;;;;;;;;5.50;5.50;14.10;99.90;;;;;;5053696;28;11475;-52
2022/03/04 05:40:01;;;;;;;;;5.25;4.00;14.10;99.90;;;;;;5054015;28;11874;-53
2022/03/04 05:42:31;;;;;;;;;5.25;5.25;14.10;99.90;;;;;;5051387;28;11479;-57
2022/03/04 05:45:05;;;;;;;;;6.25;4.25;14.10;99.90;;;;;;5058457;28;11933;-57
2022/03/04 05:47:37;;;;;;;;;4.50;3.25;14.10;99.90;;;;;;5046653;28;12155;-58
2022/03/04 05:50:09;;;;;;;;;4.25;4.00;14.10;99.90;;;;;;5061728;28;11445;-59
2022/03/04 05:52:39;;;;;;;;;4.00;4.00;14.10;99.90;;;;;;5050356;28;11461;-59
2022/03/04 05:55:11;;;;;;;;;3.75;3.75;14.10;99.90;;;;;;5062783;28;12177;-58
2022/03/04 05:57:42;;;;;;;;;5.50;5.50;14.10;99.90;;;;;;5049655;28;11466;-58
2022/03/04 06:00:13;;;;;;;;;5.00;5.00;14.10;99.90;;;;;;5052206;28;11477;-58
2022/03/04 06:02:44;;;;;;;;;4.00;4.00;14.10;99.90;;;;;;5049832;28;11466;-51
2022/03/04 06:05:14;;;;;;;;;3.50;3.50;14.10;99.90;;;;;;5054522;28;11495;-57
2022/03/04 06:07:47;;;;;;;;;4.25;4.00;14.00;99.90;;;;;;5050145;28;11456;-58
2022/03/04 06:10:17;;;;;;;;;4.75;4.75;14.00;99.90;;;;;;5049751;28;11472;-49
2022/03/04 06:12:48;;;;;;;;;4.25;3.75;14.00;99.90;;;;;;5054804;28;11507;-53
2022/03/04 06:15:19;;;;;;;;;4.00;4.00;14.00;99.90;;;;;;5049944;28;11468;-58
2022/03/04 06:17:51;;;;;;;;;4.25;4.25;14.00;99.90;;;;;;5046812;28;11485;-58
2022/03/04 06:20:22;;;;;;;;;5.00;3.50;14.00;99.90;;;;;;5051389;28;11519;-57
2022/03/04 06:22:53;;;;;;;;;3.25;3.25;14.00;99.90;;;;;;5057551;28;11510;-57
2022/03/04 06:25:24;;;;;;;;;3.75;3.75;14.00;99.90;;;;;;5056783;28;11494;-49
2022/03/04 06:28:01;;;;;;;;;4.00;4.00;14.00;99.90;;;;;;5057370;28;11193;-49
2022/03/04 06:30:36;;;;;;;;;3.00;3.00;14.00;99.90;;;;;;5055635;28;11489;-57
2022/03/04 06:36:07;;;;;;;;;4.00;3.50;14.00;99.90;;;;;;5051212;28;12140;-57
2022/03/04 06:38:41;;;;;;;;;3.00;3.00;14.00;99.90;;;;;;5053733;28;11448;-58
2022/03/04 06:41:15;;;;;;;;;6.00;6.00;14.00;99.90;;;;;;5056523;28;11487;-58
2022/03/04 06:43:45;;;;;;;;;6.25;4.50;14.00;99.90;;;;;;5040949;28;12157;-52
2022/03/04 06:46:17;;;;;;;;;3.75;3.50;14.00;99.90;;;;;;5052404;28;11500;-49
2022/03/04 06:48:49;;;;;;;;;4.25;4.25;14.00;99.90;;;;;;5050702;28;11459;-50
2022/03/04 06:51:19;;;;;;;;;3.75;3.75;14.00;99.90;;;;;;5047827;28;12167;-57
2022/03/04 06:53:50;;;;;;;;;5.00;5.00;14.00;99.90;;;;;;5052825;28;11904;-52
2022/03/04 06:56:20;;;;;;;;;3.75;3.75;14.00;99.90;;;;;;5050150;28;11450;-55
2022/03/04 06:58:53;;;;;;;;;6.00;5.00;14.00;99.90;;;;;;5049034;28;11505;-58
2022/03/04 07:01:23;;;;;;;;;4.25;4.25;14.00;99.90;;;;;;5048709;28;11438;-58
2022/03/04 07:03:54;;;;;;;;;5.00;5.00;14.00;99.90;;;;;;5055580;28;11486;-57
2022/03/04 07:06:25;;;;;;;;;5.00;5.00;14.00;99.90;;;;;;5055104;28;11595;-57
2022/03/04 07:08:56;;;;;;;;;6.50;6.50;14.00;99.90;;;;;;5054409;28;11465;-57
2022/03/04 07:11:30;;;;;;;;;5.00;5.00;13.90;99.90;;;;;;5049636;28;11460;-57
2022/03/04 07:14:00;;;;;;;;;4.75;4.75;13.90;99.90;;;;;;5054382;28;12263;-50
2022/03/04 07:16:31;;;;;;;;;6.00;6.00;13.90;99.90;;;;;;5050654;28;11490;-53
2022/03/04 07:19:03;;;;;;;;;3.00;3.00;13.90;99.90;;;;;;5049786;28;11515;-54
2022/03/04 07:21:35;;;;;;;;;7.75;6.00;13.90;99.90;;;;;;5050415;28;11451;-54
2022/03/04 07:24:05;;;;;;;;;7.75;6.00;13.90;99.90;;;;;;5047115;28;12100;-52
2022/03/04 07:26:38;;;;;;;;;5.75;5.75;13.90;99.90;;;;;;5043693;28;11472;-58
2022/03/04 07:29:09;;;;;;;;;6.25;6.25;13.90;99.90;;;;;;5051587;28;11468;-53
2022/03/04 07:31:39;;;;;;;;;6.50;6.50;13.90;99.90;;;;;;5043405;28;11454;-51
2022/03/04 07:34:11;;;;;;;;;5.25;5.25;13.90;99.90;;;;;;5046845;28;11447;-57
2022/03/04 07:36:42;;;;;;;;;5.50;5.50;13.90;99.90;;;;;;5054130;28;11458;-58
2022/03/04 07:39:14;;;;;;;;;6.75;6.75;13.90;99.90;;;;;;5050706;28;12318;-57
2022/03/04 07:41:50;;;;;;;;;6.25;6.25;13.90;99.90;;;;;;5058013;28;11456;-58
2022/03/04 07:44:28;;;;;;;;;5.50;5.50;13.90;99.90;;;;;;5049387;28;11455;-50
2022/03/04 07:47:00;;;;;;;;;8.50;8.50;13.90;99.90;;;;;;5046333;28;11445;-52
2022/03/04 07:49:31;;;;;;;;;8.00;8.00;13.90;99.90;;;;;;5049491;28;11852;-50
2022/03/04 07:52:01;;;;;;;;;8.50;7.00;13.90;99.90;;;;;;5053588;28;11528;-52
2022/03/04 07:54:32;;;;;;;;;7.75;7.75;13.90;99.90;;;;;;5050964;28;11447;-52
2022/03/04 07:57:05;;;;;;;;;10.00;8.25;13.90;99.90;;;;;;5050417;28;11542;-57
2022/03/04 07:59:35;;;;;;;;;6.25;6.25;13.90;99.90;;;;;;5045958;28;11478;-57
2022/03/04 08:02:07;;;;;;;;;9.75;8.25;13.90;99.90;;;;;;5054366;28;11493;-58
2022/03/04 08:04:38;;;;;;;;;6.50;6.50;13.90;99.90;;;;;;5046223;28;11445;-58
2022/03/04 08:07:08;;;;;;;;;5.00;5.00;13.80;99.90;;;;;;5051955;28;11470;-57
2022/03/04 08:09:41;;;;;;;;;7.25;7.25;13.80;99.90;;;;;;5053244;28;12152;-57
2022/03/04 08:12:12;;;;;;;;;8.75;8.75;13.80;99.90;;;;;;5050685;28;11453;-58
2022/03/04 08:14:47;;;;;;;;;7.50;7.50;13.80;99.90;;;;;;5052972;28;11501;-51
2022/03/04 08:17:18;;;;;;;;;6.25;6.25;13.80;99.90;;;;;;5048292;28;11452;-52
2022/03/04 08:19:48;;;;;;;;;9.00;9.00;13.80;99.90;;;;;;5054734;28;11487;-57
2022/03/04 08:22:19;;;;;;;;;9.00;9.00;13.80;99.90;;;;;;5053102;28;11474;-58
2022/03/04 08:24:57;;;;;;;;;10.00;10.00;13.80;99.90;;;;;;5056287;28;11811;-52
2022/03/04 08:27:30;;;;;;;;;9.75;9.75;13.80;99.90;;;;;;5051560;28;11480;-51
2022/03/04 08:30:04;;;;;;;;;9.50;9.50;13.80;99.90;;;;;;5054138;28;11505;-53
2022/03/04 08:32:36;;;;;;;;;8.50;8.50;13.70;99.90;;;;;;5050042;28;12233;-52
2022/03/04 08:35:08;;;;;;;;;11.75;11.75;13.70;99.90;;;;;;5055081;28;11581;-58
2022/03/04 08:37:40;;;;;;;;;9.50;9.50;13.70;99.90;;;;;;5043073;28;11475;-58
2022/03/04 08:40:12;;;;;;;;;11.75;11.75;13.70;99.90;;;;;;5046759;28;11526;-53
2022/03/04 08:42:46;;;;;;;;;9.75;9.75;13.70;99.90;;;;;;5049997;28;11511;-51
2022/03/04 08:45:16;;;;;;;;;10.00;10.00;13.70;99.90;;;;;;5050593;28;11627;-57
2022/03/04 08:47:50;;;;;;;;;12.00;12.00;13.80;99.90;;;;;;5047414;28;11488;-53
2022/03/04 08:50:21;;;;;;;;;9.50;9.50;13.70;99.90;;;;;;5055422;28;11505;-57
2022/03/04 08:52:53;;;;;;;;;10.00;10.00;13.70;99.90;;;;;;5049891;28;11507;-52
2022/03/04 08:55:22;;;;;;;;;7.75;7.75;13.70;99.90;;;;;;5050275;28;11502;-57
2022/03/04 08:57:53;;;;;;;;;10.50;8.75;13.70;99.90;;;;;;5048838;28;12332;-49
2022/03/04 09:00:26;;;;;;;;;7.50;7.50;13.70;99.90;;;;;;5048652;28;11516;-52
2022/03/04 09:02:58;;;;;;;;;8.50;8.25;13.70;99.90;;;;;;5047221;28;11478;-53
2022/03/04 09:05:30;;;;;;;;;8.00;8.00;13.70;99.90;;;;;;5053848;28;11532;-57
2022/03/04 09:08:01;;;;;;;;;9.50;9.50;13.70;99.90;;;;;;5048728;28;11557;-57
2022/03/04 09:10:32;;;;;;;;;9.25;9.25;13.70;99.90;;;;;;5035352;28;11499;-57
2022/03/04 09:13:05;;;;;;;;;8.25;8.25;13.60;99.90;;;;;;5049569;28;11559;-56
2022/03/04 09:15:35;;;;;;;;;10.25;8.75;13.70;99.90;;;;;;5042055;28;11519;-50
2022/03/04 09:18:06;;;;;;;;;9.00;9.00;13.70;99.90;;;;;;5051109;28;11587;-57
2022/03/04 09:20:37;;;;;;;;;8.00;8.00;13.70;99.90;;;;;;5050126;28;12259;-58
2022/03/04 09:23:07;;;;;;;;;9.25;9.25;13.70;99.90;;;;;;5046830;28;11443;-57
2022/03/04 09:25:40;;;;;;;;;8.00;8.00;13.70;99.90;;;;;;5043134;28;11467;-51
2022/03/04 09:28:11;;;;;;;;;7.75;7.75;13.70;99.90;;;;;;5048506;28;11464;-58
2022/03/04 09:30:42;;;;;;;;;7.25;7.25;13.70;99.90;;;;;;5043211;28;12243;-57
2022/03/04 09:33:13;;;;;;;;;9.25;9.00;13.70;99.90;;;;;;5055485;28;11473;-49
2022/03/04 09:35:47;;;;;;;;;10.50;8.75;13.70;99.90;;;;;;5048955;28;11884;-52
2022/03/04 09:38:17;;;;;;;;;9.00;9.00;13.70;99.90;;;;;;5056134;28;11489;-51
2022/03/04 09:40:51;;;;;;;;;6.50;6.50;13.70;99.90;;;;;;5039900;28;11461;-52
2022/03/04 09:43:23;;;;;;;;;8.25;8.25;13.70;99.90;;;;;;5050989;28;11545;-58
2022/03/04 09:45:55;;;;;;;;;9.50;9.50;13.70;99.90;;;;;;5043721;28;11655;-58
2022/03/04 09:48:26;;;;;;;;;8.00;8.00;13.70;99.90;;;;;;5053980;28;11447;-58
2022/03/04 09:50:57;;;;;;;;;9.50;9.50;13.60;99.90;;;;;;5048638;28;11579;-51
2022/03/04 09:53:28;;;;;;;;;7.50;7.50;13.70;99.90;;;;;;5055362;28;11556;-49
2022/03/04 09:55:58;;;;;;;;;12.50;9.50;13.60;99.90;;;;;;5053263;28;11501;-53
2022/03/04 09:58:29;;;;;;;;;9.75;7.25;13.60;99.90;;;;;;5054212;28;11512;-58
2022/03/04 10:01:00;;;;;;;;;7.75;7.75;13.60;99.90;;;;;;5048926;28;11453;-57
2022/03/04 10:03:31;;;;;;;;;11.25;11.25;13.60;99.90;;;;;;5053045;28;11492;-58
2022/03/04 10:06:06;;;;;;;;;14.50;12.25;13.70;99.90;;;;;;5055640;28;11564;-58
2022/03/04 10:08:43;;;;;;;;;10.00;8.25;13.70;99.90;;;;;;5048871;28;11563;-57
2022/03/04 10:11:32;;;;;;;;;7.75;7.75;13.70;99.90;;;;;;5055430;28;11475;-58
2022/03/04 10:14:14;;;;;;;;;10.50;8.75;13.70;99.90;;;;;;5054796;28;11483;-51
2022/03/04 10:16:46;;;;;;;;;10.00;10.00;13.60;99.90;;;;;;5049772;28;11470;-58
2022/03/04 10:19:23;;;;;;;;;10.25;10.00;13.60;99.90;;;;;;5056367;28;12686;-57
2022/03/04 10:21:58;;;;;;;;;10.00;10.00;13.60;99.90;;;;;;5049787;28;11486;-57
2022/03/04 10:24:34;;;;;;;;;8.75;8.75;13.60;99.90;;;;;;5057380;28;11941;-53
2022/03/04 10:27:15;;;;;;;;;9.00;9.00;13.60;99.90;;;;;;5055036;28;11572;-52
2022/03/04 10:29:48;;;;;;;;;9.25;9.25;13.60;99.90;;;;;;5049263;28;11546;-56
2022/03/04 10:32:26;;;;;;;;;8.75;8.75;13.60;99.90;;;;;;5052113;28;11526;-53
2022/03/04 10:35:01;;;;;;;;;10.00;10.00;13.60;99.90;;;;;;5057699;28;12203;-56
2022/03/04 10:37:55;;;;;;;;;11.25;9.75;13.60;99.90;;;;;;5056319;28;11773;-57
2022/03/04 10:40:31;;;;;;;;;10.00;10.00;13.60;99.90;;;;;;5050911;28;11509;-53
2022/03/04 10:43:05;;;;;;;;;9.50;9.50;13.60;99.90;;;;;;5053946;28;12287;-52
2022/03/04 10:45:40;;;;;;;;;6.25;6.25;13.60;99.90;;;;;;5047921;28;11542;-52
2022/03/04 10:48:16;;;;;;;;;11.75;11.75;13.60;99.90;;;;;;5054510;28;11504;-52
2022/03/04 10:50:47;;;;;;;;;6.75;6.75;13.60;99.90;;;;;;5051266;28;11575;-53
2022/03/04 10:53:28;;;;;;;;;11.50;11.50;13.50;99.90;;;;;;5069183;28;11546;-58
2022/03/04 10:56:07;;;;;;;;;11.75;11.75;13.50;99.90;;;;;;5051134;28;11519;-57
2022/03/04 10:58:40;;;;;;;;;16.75;15.00;13.50;99.90;;;;;;5056397;28;11618;-57
2022/03/04 11:01:22;;;;;;;;;12.50;12.50;13.60;99.90;;;;;;5046204;28;11629;-57
2022/03/04 11:03:53;;;;;;;;;12.75;11.75;13.60;99.90;;;;;;5053805;28;11485;-52
2022/03/04 11:06:27;;;;;;;;;13.25;13.25;13.60;99.90;;;;;;5053080;28;11500;-51
2022/03/04 11:08:57;;;;;;;;;14.00;10.75;13.60;99.90;;;;;;5048895;28;11606;-58
2022/03/04 11:11:28;;;;;;;;;8.00;6.00;13.60;99.90;;;;;;5057495;28;11515;-58
2022/03/04 11:13:59;;;;;;;;;10.50;10.50;13.50;99.90;;;;;;5056702;28;12182;-50
2022/03/04 11:16:31;;;;;;;;;10.00;10.00;13.60;99.90;;;;;;5051309;28;11568;-56
2022/03/04 11:19:01;;;;;;;;;10.25;10.25;13.60;99.90;;;;;;5052620;28;12319;-58
2022/03/04 11:21:33;;;;;;;;;10.00;10.00;13.60;99.90;;;;;;5057788;28;11556;-58
2022/03/04 11:24:03;;;;;;;;;11.00;9.75;13.60;99.90;;;;;;5048447;28;11534;-58
2022/03/04 11:26:35;;;;;;;;;11.25;11.25;13.60;99.90;;;;;;5051057;28;11496;-58
2022/03/04 11:29:06;;;;;;;;;11.50;11.50;13.60;99.90;;;;;;5045895;28;12284;-57
2022/03/04 11:31:36;;;;;;;;;11.50;11.50;13.50;99.90;;;;;;5041106;28;11550;-57
2022/03/04 11:34:06;;;;;;;;;8.25;8.25;13.60;99.90;;;;;;5053851;28;11511;-58
2022/03/04 11:36:39;;;;;;;;;11.25;11.25;13.50;99.90;;;;;;5053018;28;13202;-52
2022/03/04 11:39:17;;;;;;;;;12.00;12.00;13.60;99.90;;;;;;5050952;28;12609;-57
2022/03/04 11:41:47;;;;;;;;;11.00;11.00;13.60;99.90;;;;;;5058615;28;11492;-58
2022/03/04 11:44:25;;;;;;;;;11.00;11.00;13.50;99.90;;;;;;5044295;28;11528;-53
2022/03/04 11:47:01;;;;;;;;;12.25;11.75;13.60;99.90;;;;;;5054542;28;12371;-49
2022/03/04 11:49:47;;;;;;;;;10.00;10.00;13.60;99.90;;;;;;5046691;28;11556;-54
2022/03/04 11:52:27;;;;;;;;;11.00;11.00;13.60;99.90;;;;;;5051671;28;11567;-57
2022/03/04 11:54:58;;;;;;;;;11.00;11.00;13.60;99.90;;;;;;5056914;28;11558;-58
2022/03/04 11:57:31;;;;;;;;;11.00;11.00;13.50;99.90;;;;;;5053026;28;11516;-57
2022/03/04 12:00:12;;;;;;;;;10.00;10.00;13.50;99.90;;;;;;5057358;28;11634;-58
2022/03/04 12:02:46;;;;;;;;;11.00;11.00;13.60;99.90;;;;;;5049342;28;11534;-57
2022/03/04 12:05:28;;;;;;;;;11.75;11.75;13.60;99.90;;;;;;5055084;28;11472;-53
2022/03/04 12:08:03;;;;;;;;;11.75;11.75;13.60;99.90;;;;;;5051209;28;11530;-49
2022/03/04 12:10:45;;;;;;;;;12.75;12.75;13.50;99.90;;;;;;5053231;28;11572;-57
2022/03/04 12:13:29;;;;;;;;;14.25;14.25;13.50;99.90;;;;;;5051783;28;11551;-52
2022/03/04 12:16:03;;;;;;;;;12.75;12.75;13.60;99.90;;;;;;5050759;28;11497;-52
2022/03/04 12:18:43;;;;;;;;;13.00;13.00;13.50;99.90;;;;;;5051288;28;12417;-57
2022/03/04 12:21:38;;;;;;;;;12.00;11.00;13.60;99.90;;;;;;5056628;28;11537;-57
2022/03/04 12:24:09;;;;;;;;;11.00;11.00;13.50;99.90;;;;;;5054434;28;11548;-57
2022/03/04 12:26:45;;;;;;;;;8.50;8.50;13.50;99.90;;;;;;5049348;28;11518;-57
2022/03/04 12:29:16;;;;;;;;;10.00;10.00;13.50;99.90;;;;;;5055841;28;12345;-52
2022/03/04 12:31:48;;;;;;;;;13.50;10.75;13.50;99.90;;;;;;5050247;28;11526;-58
2022/03/04 12:34:26;;;;;;;;;11.50;11.50;13.50;99.90;;;;;;5049602;28;11525;-53
2022/03/04 12:37:08;;;;;;;;;6.00;6.00;13.50;99.90;;;;;;5052064;28;11594;-54
2022/03/04 12:39:39;;;;;;;;;9.25;9.25;13.50;99.90;;;;;;5048808;28;11531;-57
2022/03/04 12:42:12;;;;;;;;;7.25;7.25;13.50;99.90;;;;;;5051062;28;11511;-57
2022/03/04 12:44:44;;;;;;;;;9.00;7.50;13.50;99.90;;;;;;5049326;28;11470;-58
2022/03/04 12:47:16;;;;;;;;;9.75;9.75;13.50;99.90;;;;;;5051511;28;11491;-58
2022/03/04 12:49:49;;;;;;;;;10.00;10.00;13.50;99.90;;;;;;5050412;28;11538;-56
2022/03/04 12:52:22;;;;;;;;;11.00;11.00;13.50;99.90;;;;;;5045731;28;11504;-51
2022/03/04 12:54:51;;;;;;;;;12.00;12.00;13.50;99.90;;;;;;5052201;28;11471;-53
2022/03/04 12:57:24;;;;;;;;;5.75;4.50;13.50;99.90;;;;;;5051599;28;11572;-52
2022/03/04 12:59:56;;;;;;;;;9.00;9.00;13.50;99.90;;;;;;5053284;28;11427;-58
2022/03/04 13:02:37;;;;;;;;;8.75;8.75;13.50;99.90;;;;;;5054088;28;11475;-57
2022/03/04 13:05:10;;;;;;;;;6.00;6.00;13.50;99.90;;;;;;5053298;28;11448;-58
2022/03/04 13:07:41;;;;;;;;;6.25;6.25;13.50;99.90;;;;;;5048136;28;11494;-56
2022/03/04 13:10:13;;;;;;;;;6.00;4.25;13.50;99.90;;;;;;5047772;28;12204;-57
2022/03/04 13:12:47;;;;;;;;;8.00;7.00;13.40;99.90;;;;;;5051020;28;11425;-57